sensor_id;sensor_type;location;lat;lon;timestamp;temperature;humidity
19437;DHT22;9854;50.968;4.168;2023-07-31T00:00:11;17.50;99.90
19437;DHT22;9854;50.968;4.168;2023-07-31T00:02:37;17.60;99.90
19437;DHT22;9854;50.968;4.168;2023-07-31T00:05:03;17.60;99.90
19437;DHT22;9854;50.968;4.168;2023-07-31T00:07:29;17.60;99.90
19437;DHT22;9854;50.968;4.168;2023-07-31T00:09:54;17.60;99.90
19437;DHT22;9854;50.968;4.168;2023-07-31T00:12:22;17.70;99.90
19437;DHT22;9854;50.968;4.168;2023-07-31T00:14:47;17.70;99.90
19437;DHT22;9854;50.968;4.168;2023-07-31T00:17:13;17.70;99.90
19437;DHT22;9854;50.968;4.168;2023-07-31T00:19:39;17.70;99.90
19437;DHT22;9854;50.968;4.168;2023-07-31T00:22:05;17.70;99.90
19437;DHT22;9854;50.968;4.168;2023-07-31T00:24:30;17.80;99.90
19437;DHT22;9854;50.968;4.168;2023-07-31T00:26:56;17.80;99.90
19437;DHT22;9854;50.968;4.168;2023-07-31T00:29:21;17.80;99.90
19437;DHT22;9854;50.968;4.168;2023-07-31T00:31:47;17.80;99.90
19437;DHT22;9854;50.968;4.168;2023-07-31T00:34:13;17.70;99.90
19437;DHT22;9854;50.968;4.168;2023-07-31T00:36:38;17.90;99.90
19437;DHT22;9854;50.968;4.168;2023-07-31T00:39:04;18.00;99.90
19437;DHT22;9854;50.968;4.168;2023-07-31T00:41:30;17.90;99.90
19437;DHT22;9854;50.968;4.168;2023-07-31T00:43:55;18.00;99.90
19437;DHT22;9854;50.968;4.168;2023-07-31T00:46:21;17.90;99.90
19437;DHT22;9854;50.968;4.168;2023-07-31T00:48:47;18.00;99.90
19437;DHT22;9854;50.968;4.168;2023-07-31T00:51:13;18.00;99.90
19437;DHT22;9854;50.968;4.168;2023-07-31T00:53:39;18.00;99.90
19437;DHT22;9854;50.968;4.168;2023-07-31T00:56:05;17.90;99.90
19437;DHT22;9854;50.968;4.168;2023-07-31T00:58:31;17.90;99.90
19437;DHT22;9854;50.968;4.168;2023-07-31T01:00:57;17.80;99.90
19437;DHT22;9854;50.968;4.168;2023-07-31T01:03:23;17.80;99.90
19437;DHT22;9854;50.968;4.168;2023-07-31T01:09:06;17.80;99.90
19437;DHT22;9854;50.968;4.168;2023-07-31T01:11:42;17.90;99.90
19437;DHT22;9854;50.968;4.168;2023-07-31T01:14:08;17.80;99.90
19437;DHT22;9854;50.968;4.168;2023-07-31T01:16:34;17.80;99.90
19437;DHT22;9854;50.968;4.168;2023-07-31T01:18:59;17.80;99.90
19437;DHT22;9854;50.968;4.168;2023-07-31T01:24:41;17.80;99.90
19437;DHT22;9854;50.968;4.168;2023-07-31T01:27:17;17.80;99.90
19437;DHT22;9854;50.968;4.168;2023-07-31T01:29:56;18.00;99.90
19437;DHT22;9854;50.968;4.168;2023-07-31T01:32:25;18.10;99.90
19437;DHT22;9854;50.968;4.168;2023-07-31T01:34:53;18.10;99.90
19437;DHT22;9854;50.968;4.168;2023-07-31T01:37:19;18.10;99.90
19437;DHT22;9854;50.968;4.168;2023-07-31T01:39:44;18.00;99.90
19437;DHT22;9854;50.968;4.168;2023-07-31T01:42:10;18.10;99.90
19437;DHT22;9854;50.968;4.168;2023-07-31T01:44:36;18.10;99.90
19437;DHT22;9854;50.968;4.168;2023-07-31T01:47:01;18.10;99.90
19437;DHT22;9854;50.968;4.168;2023-07-31T01:49:27;18.00;99.90
19437;DHT22;9854;50.968;4.168;2023-07-31T01:51:52;18.00;99.90
19437;DHT22;9854;50.968;4.168;2023-07-31T01:54:18;17.90;99.90
19437;DHT22;9854;50.968;4.168;2023-07-31T01:56:43;17.90;99.90
19437;DHT22;9854;50.968;4.168;2023-07-31T01:59:09;17.90;99.90
19437;DHT22;9854;50.968;4.168;2023-07-31T02:01:35;18.00;99.90
19437;DHT22;9854;50.968;4.168;2023-07-31T02:04:00;18.00;99.90
19437;DHT22;9854;50.968;4.168;2023-07-31T02:06:26;18.00;99.90
19437;DHT22;9854;50.968;4.168;2023-07-31T02:08:52;18.00;99.90
19437;DHT22;9854;50.968;4.168;2023-07-31T02:11:18;18.10;99.90
19437;DHT22;9854;50.968;4.168;2023-07-31T02:13:43;18.10;99.90
19437;DHT22;9854;50.968;4.168;2023-07-31T02:16:09;18.00;99.90
19437;DHT22;9854;50.968;4.168;2023-07-31T02:18:34;18.00;99.90
19437;DHT22;9854;50.968;4.168;2023-07-31T02:21:00;18.00;99.90
19437;DHT22;9854;50.968;4.168;2023-07-31T02:23:26;18.00;99.90
19437;DHT22;9854;50.968;4.168;2023-07-31T02:25:51;18.00;99.90
19437;DHT22;9854;50.968;4.168;2023-07-31T02:28:17;18.00;99.90
19437;DHT22;9854;50.968;4.168;2023-07-31T02:30:45;18.00;99.90
19437;DHT22;9854;50.968;4.168;2023-07-31T02:33:11;18.10;99.90
19437;DHT22;9854;50.968;4.168;2023-07-31T02:35:37;18.00;99.90
19437;DHT22;9854;50.968;4.168;2023-07-31T02:38:03;18.00;99.90
19437;DHT22;9854;50.968;4.168;2023-07-31T02:40:28;18.00;99.90
19437;DHT22;9854;50.968;4.168;2023-07-31T02:42:54;18.00;99.90
19437;DHT22;9854;50.968;4.168;2023-07-31T02:45:20;18.10;99.90
19437;DHT22;9854;50.968;4.168;2023-07-31T02:47:45;18.20;99.90
19437;DHT22;9854;50.968;4.168;2023-07-31T02:50:11;18.20;99.90
19437;DHT22;9854;50.968;4.168;2023-07-31T02:52:36;18.30;99.90
19437;DHT22;9854;50.968;4.168;2023-07-31T02:55:02;18.10;99.90
19437;DHT22;9854;50.968;4.168;2023-07-31T02:57:28;18.10;99.90
19437;DHT22;9854;50.968;4.168;2023-07-31T02:59:53;18.10;99.90
19437;DHT22;9854;50.968;4.168;2023-07-31T03:02:19;18.10;99.90
19437;DHT22;9854;50.968;4.168;2023-07-31T03:04:44;18.20;99.90
19437;DHT22;9854;50.968;4.168;2023-07-31T03:07:10;18.10;99.90
19437;DHT22;9854;50.968;4.168;2023-07-31T03:09:36;18.20;99.90
19437;DHT22;9854;50.968;4.168;2023-07-31T03:12:01;18.10;99.90
19437;DHT22;9854;50.968;4.168;2023-07-31T03:14:27;18.10;99.90
19437;DHT22;9854;50.968;4.168;2023-07-31T03:16:53;18.10;99.90
19437;DHT22;9854;50.968;4.168;2023-07-31T03:19:19;18.10;99.90
19437;DHT22;9854;50.968;4.168;2023-07-31T03:21:45;18.10;99.90
19437;DHT22;9854;50.968;4.168;2023-07-31T03:24:10;18.20;99.90
19437;DHT22;9854;50.968;4.168;2023-07-31T03:26:37;18.10;99.90
19437;DHT22;9854;50.968;4.168;2023-07-31T03:29:03;18.10;99.90
19437;DHT22;9854;50.968;4.168;2023-07-31T03:31:29;18.00;99.90
19437;DHT22;9854;50.968;4.168;2023-07-31T03:33:55;18.00;99.90
19437;DHT22;9854;50.968;4.168;2023-07-31T03:36:20;18.00;99.90
19437;DHT22;9854;50.968;4.168;2023-07-31T03:38:46;18.00;99.90
19437;DHT22;9854;50.968;4.168;2023-07-31T03:41:12;18.00;99.90
19437;DHT22;9854;50.968;4.168;2023-07-31T03:43:37;18.00;99.90
19437;DHT22;9854;50.968;4.168;2023-07-31T03:46:03;17.80;99.90
19437;DHT22;9854;50.968;4.168;2023-07-31T03:48:29;17.70;99.90
19437;DHT22;9854;50.968;4.168;2023-07-31T03:50:55;17.70;99.90
19437;DHT22;9854;50.968;4.168;2023-07-31T03:53:20;17.70;99.90
19437;DHT22;9854;50.968;4.168;2023-07-31T03:55:46;17.70;99.90
19437;DHT22;9854;50.968;4.168;2023-07-31T03:58:12;17.70;99.90
19437;DHT22;9854;50.968;4.168;2023-07-31T04:00:37;17.60;99.90
19437;DHT22;9854;50.968;4.168;2023-07-31T04:03:03;17.60;99.90
19437;DHT22;9854;50.968;4.168;2023-07-31T04:05:32;17.60;99.90
19437;DHT22;9854;50.968;4.168;2023-07-31T04:07:58;17.50;99.90
19437;DHT22;9854;50.968;4.168;2023-07-31T04:10:24;17.50;99.90
19437;DHT22;9854;50.968;4.168;2023-07-31T04:12:49;17.50;99.90
19437;DHT22;9854;50.968;4.168;2023-07-31T04:15:15;17.50;99.90
19437;DHT22;9854;50.968;4.168;2023-07-31T04:17:42;17.40;99.90
19437;DHT22;9854;50.968;4.168;2023-07-31T04:20:08;17.40;99.90
19437;DHT22;9854;50.968;4.168;2023-07-31T04:22:33;17.60;99.90
19437;DHT22;9854;50.968;4.168;2023-07-31T04:24:59;17.50;99.90
19437;DHT22;9854;50.968;4.168;2023-07-31T04:27:25;17.50;99.90
19437;DHT22;9854;50.968;4.168;2023-07-31T04:29:50;17.50;99.90
19437;DHT22;9854;50.968;4.168;2023-07-31T04:32:16;17.50;99.90
19437;DHT22;9854;50.968;4.168;2023-07-31T04:34:42;17.50;99.90
19437;DHT22;9854;50.968;4.168;2023-07-31T04:37:08;17.50;99.90
19437;DHT22;9854;50.968;4.168;2023-07-31T04:39:34;17.50;99.90
19437;DHT22;9854;50.968;4.168;2023-07-31T04:41:59;17.30;99.90
19437;DHT22;9854;50.968;4.168;2023-07-31T04:44:25;17.40;99.90
19437;DHT22;9854;50.968;4.168;2023-07-31T04:46:51;17.50;99.90
19437;DHT22;9854;50.968;4.168;2023-07-31T04:49:16;17.60;99.90
19437;DHT22;9854;50.968;4.168;2023-07-31T04:51:42;17.60;99.90
19437;DHT22;9854;50.968;4.168;2023-07-31T04:54:07;17.60;99.90
19437;DHT22;9854;50.968;4.168;2023-07-31T04:56:33;17.50;99.90
19437;DHT22;9854;50.968;4.168;2023-07-31T04:58:59;17.50;99.90
19437;DHT22;9854;50.968;4.168;2023-07-31T05:01:25;17.40;99.90
19437;DHT22;9854;50.968;4.168;2023-07-31T05:03:50;17.50;99.90
19437;DHT22;9854;50.968;4.168;2023-07-31T05:06:16;17.50;99.90
19437;DHT22;9854;50.968;4.168;2023-07-31T05:08:42;17.40;99.90
19437;DHT22;9854;50.968;4.168;2023-07-31T05:11:07;17.50;99.90
19437;DHT22;9854;50.968;4.168;2023-07-31T05:13:33;17.60;99.90
19437;DHT22;9854;50.968;4.168;2023-07-31T05:15:59;17.50;99.90
19437;DHT22;9854;50.968;4.168;2023-07-31T05:18:24;17.40;99.90
19437;DHT22;9854;50.968;4.168;2023-07-31T05:20:50;17.30;99.90
19437;DHT22;9854;50.968;4.168;2023-07-31T05:23:15;17.30;99.90
19437;DHT22;9854;50.968;4.168;2023-07-31T05:25:41;17.30;99.90
19437;DHT22;9854;50.968;4.168;2023-07-31T05:28:07;17.30;99.90
19437;DHT22;9854;50.968;4.168;2023-07-31T05:30:32;17.30;99.90
19437;DHT22;9854;50.968;4.168;2023-07-31T05:32:58;17.20;99.90
19437;DHT22;9854;50.968;4.168;2023-07-31T05:35:23;17.30;99.90
19437;DHT22;9854;50.968;4.168;2023-07-31T05:37:49;17.30;99.90
19437;DHT22;9854;50.968;4.168;2023-07-31T05:40:15;17.30;99.90
19437;DHT22;9854;50.968;4.168;2023-07-31T05:42:40;17.20;99.90
19437;DHT22;9854;50.968;4.168;2023-07-31T05:45:07;17.30;99.90
19437;DHT22;9854;50.968;4.168;2023-07-31T05:47:33;17.30;99.90
19437;DHT22;9854;50.968;4.168;2023-07-31T05:49:58;17.30;99.90
19437;DHT22;9854;50.968;4.168;2023-07-31T05:52:24;17.40;99.90
19437;DHT22;9854;50.968;4.168;2023-07-31T05:54:50;17.50;99.90
19437;DHT22;9854;50.968;4.168;2023-07-31T05:57:16;17.40;99.90
19437;DHT22;9854;50.968;4.168;2023-07-31T05:59:41;17.40;99.90
19437;DHT22;9854;50.968;4.168;2023-07-31T06:02:07;17.40;99.90
19437;DHT22;9854;50.968;4.168;2023-07-31T06:04:33;17.50;99.90
19437;DHT22;9854;50.968;4.168;2023-07-31T06:06:59;17.50;99.90
19437;DHT22;9854;50.968;4.168;2023-07-31T06:09:25;17.40;99.90
19437;DHT22;9854;50.968;4.168;2023-07-31T06:11:51;17.40;99.90
19437;DHT22;9854;50.968;4.168;2023-07-31T06:14:17;17.50;99.90
19437;DHT22;9854;50.968;4.168;2023-07-31T06:16:43;17.50;99.90
19437;DHT22;9854;50.968;4.168;2023-07-31T06:19:09;17.50;99.90
19437;DHT22;9854;50.968;4.168;2023-07-31T06:21:35;17.60;99.90
19437;DHT22;9854;50.968;4.168;2023-07-31T06:24:03;17.60;99.90
19437;DHT22;9854;50.968;4.168;2023-07-31T06:26:28;17.80;99.90
19437;DHT22;9854;50.968;4.168;2023-07-31T06:28:54;17.80;99.90
19437;DHT22;9854;50.968;4.168;2023-07-31T06:31:20;17.70;99.90
19437;DHT22;9854;50.968;4.168;2023-07-31T06:33:51;17.60;99.90
19437;DHT22;9854;50.968;4.168;2023-07-31T06:36:18;17.60;99.90
19437;DHT22;9854;50.968;4.168;2023-07-31T06:38:43;17.80;99.90
19437;DHT22;9854;50.968;4.168;2023-07-31T06:41:09;17.80;99.90
19437;DHT22;9854;50.968;4.168;2023-07-31T06:43:36;17.90;99.90
19437;DHT22;9854;50.968;4.168;2023-07-31T06:46:06;17.90;99.90
19437;DHT22;9854;50.968;4.168;2023-07-31T06:48:32;18.00;99.90
19437;DHT22;9854;50.968;4.168;2023-07-31T06:50:58;18.00;99.90
19437;DHT22;9854;50.968;4.168;2023-07-31T06:53:24;18.00;99.90
19437;DHT22;9854;50.968;4.168;2023-07-31T06:55:49;18.10;99.90
19437;DHT22;9854;50.968;4.168;2023-07-31T06:58:17;18.10;99.90
19437;DHT22;9854;50.968;4.168;2023-07-31T07:00:43;18.30;99.90
19437;DHT22;9854;50.968;4.168;2023-07-31T07:03:08;18.30;99.90
19437;DHT22;9854;50.968;4.168;2023-07-31T07:05:34;18.50;99.90
19437;DHT22;9854;50.968;4.168;2023-07-31T07:08:00;18.40;99.90
19437;DHT22;9854;50.968;4.168;2023-07-31T07:10:26;18.60;99.90
19437;DHT22;9854;50.968;4.168;2023-07-31T07:12:51;18.50;99.90
19437;DHT22;9854;50.968;4.168;2023-07-31T07:15:17;18.40;99.90
19437;DHT22;9854;50.968;4.168;2023-07-31T07:17:43;18.40;99.90
19437;DHT22;9854;50.968;4.168;2023-07-31T07:20:08;18.40;99.90
19437;DHT22;9854;50.968;4.168;2023-07-31T07:22:34;18.50;99.90
19437;DHT22;9854;50.968;4.168;2023-07-31T07:25:00;18.60;99.90
19437;DHT22;9854;50.968;4.168;2023-07-31T07:27:25;18.50;99.90
19437;DHT22;9854;50.968;4.168;2023-07-31T07:29:51;18.40;99.90
19437;DHT22;9854;50.968;4.168;2023-07-31T07:32:20;18.30;99.90
19437;DHT22;9854;50.968;4.168;2023-07-31T07:34:48;18.30;99.90
19437;DHT22;9854;50.968;4.168;2023-07-31T07:37:14;18.20;99.90
19437;DHT22;9854;50.968;4.168;2023-07-31T07:39:39;18.30;99.90
19437;DHT22;9854;50.968;4.168;2023-07-31T07:42:05;18.40;99.90
19437;DHT22;9854;50.968;4.168;2023-07-31T07:44:31;18.50;99.90
19437;DHT22;9854;50.968;4.168;2023-07-31T07:46:56;18.50;99.90
19437;DHT22;9854;50.968;4.168;2023-07-31T07:49:22;18.50;99.90
19437;DHT22;9854;50.968;4.168;2023-07-31T07:51:48;18.50;99.90
19437;DHT22;9854;50.968;4.168;2023-07-31T07:54:14;18.60;99.90
19437;DHT22;9854;50.968;4.168;2023-07-31T07:56:40;18.70;99.90
19437;DHT22;9854;50.968;4.168;2023-07-31T07:59:05;19.00;99.90
19437;DHT22;9854;50.968;4.168;2023-07-31T08:01:31;19.30;99.90
19437;DHT22;9854;50.968;4.168;2023-07-31T08:03:57;19.30;99.90
19437;DHT22;9854;50.968;4.168;2023-07-31T08:06:23;19.40;99.90
19437;DHT22;9854;50.968;4.168;2023-07-31T08:08:49;19.40;99.90
19437;DHT22;9854;50.968;4.168;2023-07-31T08:11:15;19.30;99.90
19437;DHT22;9854;50.968;4.168;2023-07-31T08:13:41;19.10;99.90
19437;DHT22;9854;50.968;4.168;2023-07-31T08:16:06;18.80;99.90
19437;DHT22;9854;50.968;4.168;2023-07-31T08:18:32;18.70;99.90
19437;DHT22;9854;50.968;4.168;2023-07-31T08:20:58;18.70;99.90
19437;DHT22;9854;50.968;4.168;2023-07-31T08:23:24;18.80;99.90
19437;DHT22;9854;50.968;4.168;2023-07-31T08:25:49;19.00;99.90
19437;DHT22;9854;50.968;4.168;2023-07-31T08:28:16;19.00;99.90
19437;DHT22;9854;50.968;4.168;2023-07-31T08:30:42;19.10;99.90
19437;DHT22;9854;50.968;4.168;2023-07-31T08:33:08;19.10;99.90
19437;DHT22;9854;50.968;4.168;2023-07-31T08:35:33;19.00;99.90
19437;DHT22;9854;50.968;4.168;2023-07-31T08:37:59;19.00;99.90
19437;DHT22;9854;50.968;4.168;2023-07-31T08:40:25;19.10;99.90
19437;DHT22;9854;50.968;4.168;2023-07-31T08:42:54;19.30;99.90
19437;DHT22;9854;50.968;4.168;2023-07-31T08:45:22;19.20;99.90
19437;DHT22;9854;50.968;4.168;2023-07-31T08:47:51;19.20;99.90
19437;DHT22;9854;50.968;4.168;2023-07-31T08:50:20;19.20;99.90
19437;DHT22;9854;50.968;4.168;2023-07-31T08:52:47;19.20;99.90
19437;DHT22;9854;50.968;4.168;2023-07-31T08:55:13;19.10;99.90
19437;DHT22;9854;50.968;4.168;2023-07-31T08:57:39;19.10;99.90
19437;DHT22;9854;50.968;4.168;2023-07-31T09:00:07;19.00;99.90
19437;DHT22;9854;50.968;4.168;2023-07-31T09:05:21;19.10;99.90
19437;DHT22;9854;50.968;4.168;2023-07-31T09:07:49;19.30;99.90
19437;DHT22;9854;50.968;4.168;2023-07-31T09:10:15;19.60;99.90
19437;DHT22;9854;50.968;4.168;2023-07-31T09:12:41;19.70;99.90
19437;DHT22;9854;50.968;4.168;2023-07-31T09:15:08;19.70;99.90
19437;DHT22;9854;50.968;4.168;2023-07-31T09:17:35;19.70;99.90
19437;DHT22;9854;50.968;4.168;2023-07-31T09:20:21;19.60;99.90
19437;DHT22;9854;50.968;4.168;2023-07-31T09:22:48;19.60;99.90
19437;DHT22;9854;50.968;4.168;2023-07-31T09:25:24;19.50;99.90
19437;DHT22;9854;50.968;4.168;2023-07-31T09:30:16;19.50;99.90
19437;DHT22;9854;50.968;4.168;2023-07-31T09:32:43;19.50;99.90
19437;DHT22;9854;50.968;4.168;2023-07-31T09:37:50;19.50;99.90
19437;DHT22;9854;50.968;4.168;2023-07-31T09:40:32;19.60;99.90
19437;DHT22;9854;50.968;4.168;2023-07-31T09:43:10;19.60;99.90
19437;DHT22;9854;50.968;4.168;2023-07-31T09:45:40;19.30;99.90
19437;DHT22;9854;50.968;4.168;2023-07-31T09:48:19;19.40;99.90
19437;DHT22;9854;50.968;4.168;2023-07-31T09:50:47;19.30;99.90
19437;DHT22;9854;50.968;4.168;2023-07-31T09:53:13;19.00;99.90
19437;DHT22;9854;50.968;4.168;2023-07-31T09:55:41;18.90;99.90
19437;DHT22;9854;50.968;4.168;2023-07-31T09:58:10;18.80;99.90
19437;DHT22;9854;50.968;4.168;2023-07-31T10:00:36;18.80;99.90
19437;DHT22;9854;50.968;4.168;2023-07-31T10:03:07;18.80;99.90
19437;DHT22;9854;50.968;4.168;2023-07-31T10:05:52;18.90;99.90
19437;DHT22;9854;50.968;4.168;2023-07-31T10:08:20;19.00;99.90
19437;DHT22;9854;50.968;4.168;2023-07-31T10:10:46;19.10;99.90
19437;DHT22;9854;50.968;4.168;2023-07-31T10:13:13;19.10;99.90
19437;DHT22;9854;50.968;4.168;2023-07-31T10:15:39;19.10;99.90
19437;DHT22;9854;50.968;4.168;2023-07-31T10:18:06;19.20;99.90
19437;DHT22;9854;50.968;4.168;2023-07-31T10:20:32;19.20;99.90
19437;DHT22;9854;50.968;4.168;2023-07-31T10:22:59;19.10;99.90
19437;DHT22;9854;50.968;4.168;2023-07-31T10:25:26;19.20;99.90
19437;DHT22;9854;50.968;4.168;2023-07-31T10:27:53;19.40;99.90
19437;DHT22;9854;50.968;4.168;2023-07-31T10:30:22;19.40;99.90
19437;DHT22;9854;50.968;4.168;2023-07-31T10:32:49;19.50;99.90
19437;DHT22;9854;50.968;4.168;2023-07-31T10:35:18;19.40;99.90
19437;DHT22;9854;50.968;4.168;2023-07-31T10:37:44;19.50;99.90
19437;DHT22;9854;50.968;4.168;2023-07-31T10:42:48;19.80;99.90
19437;DHT22;9854;50.968;4.168;2023-07-31T10:45:33;19.90;99.90
19437;DHT22;9854;50.968;4.168;2023-07-31T10:48:20;20.00;99.90
19437;DHT22;9854;50.968;4.168;2023-07-31T10:50:56;20.10;99.90
19437;DHT22;9854;50.968;4.168;2023-07-31T10:53:32;19.80;99.90
19437;DHT22;9854;50.968;4.168;2023-07-31T10:56:05;19.80;99.90
19437;DHT22;9854;50.968;4.168;2023-07-31T10:58:31;19.90;99.90
19437;DHT22;9854;50.968;4.168;2023-07-31T11:01:06;20.00;99.90
19437;DHT22;9854;50.968;4.168;2023-07-31T11:03:49;20.20;99.90
19437;DHT22;9854;50.968;4.168;2023-07-31T11:06:17;20.40;99.90
19437;DHT22;9854;50.968;4.168;2023-07-31T11:08:45;20.50;99.90
19437;DHT22;9854;50.968;4.168;2023-07-31T11:11:21;20.30;99.90
19437;DHT22;9854;50.968;4.168;2023-07-31T11:13:51;20.40;99.90
19437;DHT22;9854;50.968;4.168;2023-07-31T11:16:24;20.30;99.90
19437;DHT22;9854;50.968;4.168;2023-07-31T11:18:51;20.20;99.90
19437;DHT22;9854;50.968;4.168;2023-07-31T11:21:23;20.30;99.90
19437;DHT22;9854;50.968;4.168;2023-07-31T11:23:50;20.30;99.90
19437;DHT22;9854;50.968;4.168;2023-07-31T11:26:17;20.50;99.90
19437;DHT22;9854;50.968;4.168;2023-07-31T11:28:45;20.40;99.90
19437;DHT22;9854;50.968;4.168;2023-07-31T11:31:11;20.60;99.90
19437;DHT22;9854;50.968;4.168;2023-07-31T11:33:37;20.40;99.90
19437;DHT22;9854;50.968;4.168;2023-07-31T11:36:03;20.20;99.90
19437;DHT22;9854;50.968;4.168;2023-07-31T11:38:31;20.20;99.90
19437;DHT22;9854;50.968;4.168;2023-07-31T11:40:59;20.20;99.90
19437;DHT22;9854;50.968;4.168;2023-07-31T11:43:25;20.20;99.90
19437;DHT22;9854;50.968;4.168;2023-07-31T11:45:55;20.10;99.90
19437;DHT22;9854;50.968;4.168;2023-07-31T11:48:29;20.10;99.90
19437;DHT22;9854;50.968;4.168;2023-07-31T11:51:09;20.10;99.90
19437;DHT22;9854;50.968;4.168;2023-07-31T11:53:48;20.00;99.90
19437;DHT22;9854;50.968;4.168;2023-07-31T11:56:18;20.20;99.90
19437;DHT22;9854;50.968;4.168;2023-07-31T11:58:49;20.20;99.90
19437;DHT22;9854;50.968;4.168;2023-07-31T12:01:19;20.40;99.90
19437;DHT22;9854;50.968;4.168;2023-07-31T12:03:46;20.70;99.90
19437;DHT22;9854;50.968;4.168;2023-07-31T12:06:12;20.70;99.90
19437;DHT22;9854;50.968;4.168;2023-07-31T12:08:38;21.00;99.90
19437;DHT22;9854;50.968;4.168;2023-07-31T12:11:05;21.00;99.90
19437;DHT22;9854;50.968;4.168;2023-07-31T12:13:32;21.00;99.90
19437;DHT22;9854;50.968;4.168;2023-07-31T12:16:00;21.10;99.90
19437;DHT22;9854;50.968;4.168;2023-07-31T12:18:29;21.10;99.90
19437;DHT22;9854;50.968;4.168;2023-07-31T12:20:58;21.00;99.90
19437;DHT22;9854;50.968;4.168;2023-07-31T12:23:27;21.00;99.90
19437;DHT22;9854;50.968;4.168;2023-07-31T12:26:19;21.00;99.90
19437;DHT22;9854;50.968;4.168;2023-07-31T12:28:46;20.90;99.90
19437;DHT22;9854;50.968;4.168;2023-07-31T12:33:46;20.80;99.90
19437;DHT22;9854;50.968;4.168;2023-07-31T12:36:15;21.00;99.90
19437;DHT22;9854;50.968;4.168;2023-07-31T12:38:42;21.00;99.90
19437;DHT22;9854;50.968;4.168;2023-07-31T12:41:08;21.00;99.90
19437;DHT22;9854;50.968;4.168;2023-07-31T12:43:35;20.90;99.90
19437;DHT22;9854;50.968;4.168;2023-07-31T12:46:01;21.10;99.90
19437;DHT22;9854;50.968;4.168;2023-07-31T12:48:27;21.30;99.90
19437;DHT22;9854;50.968;4.168;2023-07-31T12:50:52;21.30;99.90
19437;DHT22;9854;50.968;4.168;2023-07-31T12:53:18;21.10;99.90
19437;DHT22;9854;50.968;4.168;2023-07-31T12:55:44;20.80;99.90
19437;DHT22;9854;50.968;4.168;2023-07-31T12:58:09;20.60;99.90
19437;DHT22;9854;50.968;4.168;2023-07-31T13:00:35;20.60;99.90
19437;DHT22;9854;50.968;4.168;2023-07-31T13:03:01;20.40;99.90
19437;DHT22;9854;50.968;4.168;2023-07-31T13:05:27;20.40;99.90
19437;DHT22;9854;50.968;4.168;2023-07-31T13:07:53;20.10;99.90
19437;DHT22;9854;50.968;4.168;2023-07-31T13:10:19;19.80;99.90
19437;DHT22;9854;50.968;4.168;2023-07-31T13:12:45;19.60;99.90
19437;DHT22;9854;50.968;4.168;2023-07-31T13:15:11;19.40;99.90
19437;DHT22;9854;50.968;4.168;2023-07-31T13:17:37;19.20;99.90
19437;DHT22;9854;50.968;4.168;2023-07-31T13:20:03;19.30;99.90
19437;DHT22;9854;50.968;4.168;2023-07-31T13:22:29;19.30;99.90
19437;DHT22;9854;50.968;4.168;2023-07-31T13:24:55;19.30;99.90
19437;DHT22;9854;50.968;4.168;2023-07-31T13:27:20;19.30;99.90
19437;DHT22;9854;50.968;4.168;2023-07-31T13:29:53;19.30;99.90
19437;DHT22;9854;50.968;4.168;2023-07-31T13:32:20;19.30;99.90
19437;DHT22;9854;50.968;4.168;2023-07-31T13:34:47;19.20;99.90
19437;DHT22;9854;50.968;4.168;2023-07-31T13:37:13;19.30;99.90
19437;DHT22;9854;50.968;4.168;2023-07-31T13:39:39;19.20;99.90
19437;DHT22;9854;50.968;4.168;2023-07-31T13:42:06;19.10;99.90
19437;DHT22;9854;50.968;4.168;2023-07-31T13:44:36;19.00;99.90
19437;DHT22;9854;50.968;4.168;2023-07-31T13:47:02;18.90;99.90
19437;DHT22;9854;50.968;4.168;2023-07-31T13:49:28;18.80;99.90
19437;DHT22;9854;50.968;4.168;2023-07-31T13:51:54;18.90;99.90
19437;DHT22;9854;50.968;4.168;2023-07-31T13:54:20;18.90;99.90
19437;DHT22;9854;50.968;4.168;2023-07-31T13:56:45;18.80;99.90
19437;DHT22;9854;50.968;4.168;2023-07-31T13:59:11;18.70;99.90
19437;DHT22;9854;50.968;4.168;2023-07-31T14:01:37;18.60;99.90
19437;DHT22;9854;50.968;4.168;2023-07-31T14:04:03;18.70;99.90
19437;DHT22;9854;50.968;4.168;2023-07-31T14:06:29;18.70;99.90
19437;DHT22;9854;50.968;4.168;2023-07-31T14:08:54;18.70;99.90
19437;DHT22;9854;50.968;4.168;2023-07-31T14:11:24;18.60;99.90
19437;DHT22;9854;50.968;4.168;2023-07-31T14:13:50;18.60;99.90
19437;DHT22;9854;50.968;4.168;2023-07-31T14:16:16;18.60;99.90
19437;DHT22;9854;50.968;4.168;2023-07-31T14:18:41;18.70;99.90
19437;DHT22;9854;50.968;4.168;2023-07-31T14:21:07;18.70;99.90
19437;DHT22;9854;50.968;4.168;2023-07-31T14:23:34;18.70;99.90
19437;DHT22;9854;50.968;4.168;2023-07-31T14:25:59;18.70;99.90
19437;DHT22;9854;50.968;4.168;2023-07-31T14:28:25;18.80;99.90
19437;DHT22;9854;50.968;4.168;2023-07-31T14:30:51;18.80;99.90
19437;DHT22;9854;50.968;4.168;2023-07-31T14:33:16;18.70;99.90
19437;DHT22;9854;50.968;4.168;2023-07-31T14:35:42;18.70;99.90
19437;DHT22;9854;50.968;4.168;2023-07-31T14:38:07;18.70;99.90
19437;DHT22;9854;50.968;4.168;2023-07-31T14:40:33;18.70;99.90
19437;DHT22;9854;50.968;4.168;2023-07-31T14:42:59;18.50;99.90
19437;DHT22;9854;50.968;4.168;2023-07-31T14:45:24;18.50;99.90
19437;DHT22;9854;50.968;4.168;2023-07-31T14:47:50;18.60;99.90
19437;DHT22;9854;50.968;4.168;2023-07-31T14:50:16;18.60;99.90
19437;DHT22;9854;50.968;4.168;2023-07-31T14:52:41;18.60;99.90
19437;DHT22;9854;50.968;4.168;2023-07-31T14:55:07;18.50;99.90
19437;DHT22;9854;50.968;4.168;2023-07-31T14:57:34;18.50;99.90
19437;DHT22;9854;50.968;4.168;2023-07-31T15:00:00;18.50;99.90
19437;DHT22;9854;50.968;4.168;2023-07-31T15:02:26;18.50;99.90
19437;DHT22;9854;50.968;4.168;2023-07-31T15:04:53;18.50;99.90
19437;DHT22;9854;50.968;4.168;2023-07-31T15:07:18;18.50;99.90
19437;DHT22;9854;50.968;4.168;2023-07-31T15:09:44;18.60;99.90
19437;DHT22;9854;50.968;4.168;2023-07-31T15:12:10;18.70;99.90
19437;DHT22;9854;50.968;4.168;2023-07-31T15:14:35;18.60;99.90
19437;DHT22;9854;50.968;4.168;2023-07-31T15:17:01;18.60;99.90
19437;DHT22;9854;50.968;4.168;2023-07-31T15:19:27;18.60;99.90
19437;DHT22;9854;50.968;4.168;2023-07-31T15:21:54;18.50;99.90
19437;DHT22;9854;50.968;4.168;2023-07-31T15:24:20;18.50;99.90
19437;DHT22;9854;50.968;4.168;2023-07-31T15:26:46;18.50;99.90
19437;DHT22;9854;50.968;4.168;2023-07-31T15:29:11;18.60;99.90
19437;DHT22;9854;50.968;4.168;2023-07-31T15:31:43;18.50;99.90
19437;DHT22;9854;50.968;4.168;2023-07-31T15:34:08;18.50;99.90
19437;DHT22;9854;50.968;4.168;2023-07-31T15:36:34;18.50;99.90
19437;DHT22;9854;50.968;4.168;2023-07-31T15:39:00;18.50;99.90
19437;DHT22;9854;50.968;4.168;2023-07-31T15:41:26;18.50;99.90
19437;DHT22;9854;50.968;4.168;2023-07-31T15:43:52;18.50;99.90
19437;DHT22;9854;50.968;4.168;2023-07-31T15:46:18;18.60;99.90
19437;DHT22;9854;50.968;4.168;2023-07-31T15:48:44;18.60;99.90
19437;DHT22;9854;50.968;4.168;2023-07-31T15:51:10;18.60;99.90
19437;DHT22;9854;50.968;4.168;2023-07-31T15:53:35;18.60;99.90
19437;DHT22;9854;50.968;4.168;2023-07-31T15:56:01;18.50;99.90
19437;DHT22;9854;50.968;4.168;2023-07-31T15:58:27;18.60;99.90
19437;DHT22;9854;50.968;4.168;2023-07-31T16:00:53;18.70;99.90